Bookmark and Share
Track history (hours):
 

Drifting buoy 62722

Last reported at 2014-Apr-20 07:00 UTC. Time now 2014-Apr-20 08:57 UTC.
Position N 30°41' W 013°34'.

Water temperature 18.8 ° C

NotesDate/timePositionNaut miles runAvg speedWind from/ knotsBaromVisibWave heightAir tempDewpointWater temp
2014-Apr-20 07:00N 30°41' W 013°34'3 1.4 18.8
2014-Apr-20 05:00N 30°40' W 013°31'1 0.6 18.8
2014-Apr-20 03:00N 30°41' W 013°29'0 0.0 18.8
2014-Apr-20 02:00N 30°41' W 013°29'4 0.9 18.8
2014-Apr-19 22:00N 30°42' W 013°25'4 4.1 18.8
2014-Apr-19 21:00N 30°46' W 013°24'2 1.9 18.9
2014-Apr-19 20:00N 30°48' W 013°24'0 0.0 18.9
2014-Apr-19 19:00N 30°48' W 013°24'0 0.0 19.1
2014-Apr-19 17:00N 30°48' W 013°24'3 1.3 19.1
2014-Apr-19 15:00N 30°50' W 013°27'1 0.3 19.2
2014-Apr-19 12:00N 30°49' W 013°28'0 0.4 19.1
2014-Apr-19 11:00N 30°49' W 013°29'0 0.4 19.1
2014-Apr-19 10:00N 30°49' W 013°28'1 0.8 19.0
2014-Apr-19 09:00N 30°48' W 013°29'1 0.7 18.8
2014-Apr-19 08:00N 30°48' W 013°28'1 1.0 18.9
2014-Apr-19 07:00N 30°48' W 013°27'0 0.0 18.9
2014-Apr-19 06:00N 30°48' W 013°27'1 1.4 18.9
2014-Apr-19 05:00N 30°48' W 013°25'0 0.3 18.9
2014-Apr-19 04:00N 30°48' W 013°25'0 0.1 19.0
2014-Apr-19 03:00N 30°48' W 013°25'4 1.1 19.0
2014-Apr-18 23:00N 30°51' W 013°21'3 1.4 19.0
2014-Apr-18 21:00N 30°53' W 013°21'0 0.0 19.0
2014-Apr-18 19:00N 30°53' W 013°21'1 0.4 19.1
2014-Apr-18 16:00N 30°54' W 013°22'1 1.0 19.3
2014-Apr-18 15:00N 30°55' W 013°22'1 0.4 19.1
2014-Apr-18 12:00N 30°55' W 013°24'0 0.0 19.1
2014-Apr-18 11:00N 30°55' W 013°24'0 0.5 19.0
2014-Apr-18 10:00N 30°54' W 013°24'1 0.8 18.9
2014-Apr-18 09:00N 30°55' W 013°23'1 0.3 18.9
2014-Apr-18 07:00N 30°55' W 013°22'0 0.0 18.8
2014-Apr-18 06:00N 30°55' W 013°22'0 0.1 18.8
2014-Apr-18 05:00N 30°55' W 013°22'2 2.0 18.8
2014-Apr-18 04:00N 30°56' W 013°20'0 0.0 18.8
2014-Apr-18 03:00N 30°56' W 013°20'0 0.0 18.8
2014-Apr-17 23:00N 30°56' W 013°20'1 0.9 19.4
2014-Apr-17 22:00N 30°57' W 013°20'0 0.0 19.5
2014-Apr-17 21:00N 30°57' W 013°20'3 1.5 19.5
2014-Apr-17 19:00N 31°00' W 013°19'0 0.0 19.7
2014-Apr-17 17:00N 31°00' W 013°19'1 1.0 19.9
2014-Apr-17 16:00N 31°01' W 013°20'2 0.8 20.0
2014-Apr-17 14:00N 31°02' W 013°21'0 0.0 19.9
2014-Apr-17 13:00N 31°02' W 013°21'0 0.2 19.8
2014-Apr-17 11:00N 31°02' W 013°22'1 0.6 19.2
2014-Apr-17 10:00N 31°03' W 013°22'1 0.7 18.9
2014-Apr-17 09:00N 31°03' W 013°22'0 0.0 18.8
2014-Apr-17 07:00N 31°03' W 013°22'0 0.4 18.8
2014-Apr-17 06:00N 31°04' W 013°21'1 0.7 18.8
2014-Apr-17 05:00N 31°04' W 013°22'0 0.3 18.8
2014-Apr-17 04:00N 31°04' W 013°22'0 0.0 18.9
2014-Apr-17 03:00N 31°04' W 013°22'1 0.2 18.9
2014-Apr-17 00:00N 31°05' W 013°21'0 0.0 19.0
2014-Apr-16 23:00N 31°05' W 013°21'1 0.8 19.1
2014-Apr-16 22:00N 31°06' W 013°21'2 2.1 19.1
2014-Apr-16 21:00N 31°07' W 013°20'0 0.0 19.3
2014-Apr-16 20:00N 31°07' W 013°20'0 0.0 19.4
2014-Apr-16 19:00N 31°07' W 013°20'1 0.7 19.5
2014-Apr-16 18:00N 31°08' W 013°20'0 0.0 19.5
2014-Apr-16 17:00N 31°08' W 013°20'2 0.6 19.4
2014-Apr-16 14:00N 31°09' W 013°20'1 0.6 19.2
2014-Apr-16 12:00N 31°10' W 013°22'0 0.1 19.0
2014-Apr-16 11:00N 31°10' W 013°22'2 0.4 19.0
2014-Apr-16 06:00N 31°12' W 013°23'1 0.4 18.6
2014-Apr-16 04:00N 31°12' W 013°24'1 0.2 18.6
2014-Apr-16 00:00N 31°11' W 013°24'0 0.0 18.7
2014-Apr-15 23:00N 31°11' W 013°24'0 0.0 18.8
2014-Apr-15 22:00N 31°11' W 013°24'1 0.9 18.8
2014-Apr-15 21:00N 31°12' W 013°23'2 1.5 18.8
2014-Apr-15 20:00N 31°13' W 013°23'1 0.3 18.9
2014-Apr-15 17:00N 31°14' W 013°23'1 0.6 19.4
2014-Apr-15 16:00N 31°14' W 013°24'1 0.9 19.2
2014-Apr-15 15:00N 31°15' W 013°23'2 2.2 19.3
2014-Apr-15 14:00N 31°16' W 013°26'0 0.0 19.0
2014-Apr-15 13:00N 31°16' W 013°26'0 0.0 18.8
2014-Apr-15 12:00N 31°16' W 013°26'1 0.7 18.6
2014-Apr-15 10:00N 31°16' W 013°27'1 0.9 18.5
2014-Apr-15 09:00N 31°16' W 013°28'0 0.0 18.5
2014-Apr-15 08:00N 31°16' W 013°28'0 0.5 18.4
2014-Apr-15 07:00N 31°16' W 013°29'0 0.5 18.4
2014-Apr-15 06:00N 31°16' W 013°29'0 0.0 18.5
2014-Apr-15 05:00N 31°16' W 013°29'0 0.1 18.5
2014-Apr-15 04:00N 31°16' W 013°29'0 0.2 18.5
2014-Apr-15 03:00N 31°16' W 013°29'2 0.5 18.6
2014-Apr-14 22:00N 31°18' W 013°31'0 0.0 18.7
2014-Apr-14 19:00N 31°18' W 013°31'0 0.0 19.1
2014-Apr-14 17:00N 31°18' W 013°31'0 0.1 19.4
2014-Apr-14 16:00N 31°18' W 013°31'3 0.6 19.3
2014-Apr-14 12:00N 31°19' W 013°34'3 3.3 18.6
2014-Apr-14 11:00N 31°19' W 013°37'0 0.0 18.4
2014-Apr-14 10:00N 31°19' W 013°37'0 0.0 18.3
2014-Apr-14 07:00N 31°19' W 013°38'0 0.4 18.2
2014-Apr-14 06:00N 31°19' W 013°38'1 0.5 18.2
2014-Apr-14 05:00N 31°19' W 013°39'0 0.4 18.2
2014-Apr-14 04:00N 31°19' W 013°39'0 0.0 18.2
2014-Apr-14 03:00N 31°19' W 013°39'1 0.6 18.2
2014-Apr-14 02:00N 31°18' W 013°39'1 0.2 18.2
2014-Apr-13 22:00N 31°18' W 013°40'2 2.1 18.3
2014-Apr-13 21:00N 31°20' W 013°42'0 0.0 18.3
2014-Apr-13 20:00N 31°20' W 013°42'1 0.2 18.3
2014-Apr-13 14:00N 31°20' W 013°43'0 0.5 18.4
2014-Apr-13 13:00N 31°20' W 013°43'0 0.0 18.4
2014-Apr-13 12:00N 31°20' W 013°43'0 0.1 18.4
2014-Apr-13 11:00N 31°20' W 013°43'1 0.7 18.3
2014-Apr-13 10:00N 31°19' W 013°44'1 0.7 18.3
2014-Apr-13 09:00N 31°20' W 013°45'0 0.0 18.2
2014-Apr-13 07:00N 31°20' W 013°45'5 1.3 18.2
2014-Apr-13 03:00N 31°20' W 013°50'0 0.0 18.3
2014-Apr-13 01:00N 31°20' W 013°50'0 0.0 18.3
2014-Apr-12 22:00N 31°20' W 013°50'1 0.6 18.3
2014-Apr-12 21:00N 31°20' W 013°50'1 0.3 18.3
2014-Apr-12 18:00N 31°20' W 013°51'0 0.0 18.3
2014-Apr-12 17:00N 31°20' W 013°51'0 0.0 18.3
2014-Apr-12 16:00N 31°20' W 013°51'1 0.6 18.3
2014-Apr-12 15:00N 31°20' W 013°51'1 0.9 18.3
2014-Apr-12 14:00N 31°21' W 013°52'0 0.1 18.3
2014-Apr-12 13:00N 31°21' W 013°52'1 0.5 18.3
2014-Apr-12 11:00N 31°21' W 013°53'0 0.5 18.3
2014-Apr-12 10:00N 31°21' W 013°54'1 0.8 18.3
2014-Apr-12 09:00N 31°21' W 013°55'1 0.3 18.3
2014-Apr-12 06:00N 31°21' W 013°56'1 0.7 18.3
2014-Apr-12 05:00N 31°22' W 013°57'2 1.1 18.3
2014-Apr-12 03:00N 31°22' W 013°59'2 0.3 18.4
2014-Apr-11 19:00N 31°21' W 014°02'0 0.0 18.5
2014-Apr-11 18:00N 31°21' W 014°02'1 0.4 18.5
2014-Apr-11 15:00N 31°21' W 014°03'1 0.6 18.6
2014-Apr-11 14:00N 31°22' W 014°03'0 0.0 18.6
2014-Apr-11 13:00N 31°22' W 014°03'1 1.1 18.5
2014-Apr-11 12:00N 31°22' W 014°04'4 0.8 18.4
2014-Apr-11 07:00N 31°21' W 014°09'0 0.0 18.2
2014-Apr-11 06:00N 31°21' W 014°09'0 0.1 18.2
2014-Apr-11 05:00N 31°21' W 014°09'1 0.6 18.2
2014-Apr-11 03:00N 31°20' W 014°10'1 0.3 18.3
2014-Apr-11 01:00N 31°20' W 014°10'2 0.5 18.3
2014-Apr-10 21:00N 31°20' W 014°12'0 0.0 18.3
2014-Apr-10 20:00N 31°20' W 014°12'0 0.0 18.3
2014-Apr-10 17:00N 31°20' W 014°12'3 1.3 18.4
2014-Apr-10 15:00N 31°19' W 014°15'1 0.2 18.4
2014-Apr-10 10:00N 31°19' W 014°16'1 0.3 18.3
2014-Apr-10 07:00N 31°18' W 014°17'   18.3

Dump ship's entire track history

sailing weather and tide predictions

Buoy 62722